Terminal Aerodrome Forecast
Issued by NWS Cleveland, OH

Home | Current Version | Previous Version | Graphics & Text | Print | Product List | Glossary On
Versions: 1 2 3 4 5 6 7 8 9 10 11 12 13 14 15
000
FTUS41 KCLE 201300 AAA
TAFTOL
TAF AMD
KTOL 201304Z 2013/2112 00000KT P6SM SCT030
      TEMPO 2013/2015 BKN030
     FM201500 18005KT P6SM BKN040
     FM202300 14004KT P6SM SCT250
     FM210600 VRB03KT 4SM BR SKC=

USA.gov is the U.S. government's official web portal to all federal, state and local government web resources and services.